Swift Current Airport, Saskatchewan

Past 24 Hour Conditions

This table is a summary of hourly weather conditions for the past 24 hours. This summary includes the following parameters: temperature, humidity, dew point, wind speed and direction, air pressure, visibility and/or wind chill and humidex.
Date / Time
(CST)
Conditions Temp (°F) Humidity (%) Dew Point (°F) Wind (mph) Pressure (inches) Vis (mi) Humidex
31 July 2014
7:00 Sunny 61 77 53 SSW 10 30.0 10 *
6:00 Sunny 57   87 53 S 9 30.0 10 *
5:00 Clear 59 83 54 S 10 30.0 10 *
4:00 Clear 59 89 55 SSW 5 30.0 10 *
3:00 Clear 59 91 56 SSE 8 30.0 10 *
2:00 Clear 59 89 56 SSE 11 30.0 10 *
1:00 Clear 60 83 55 SE 9 30.0 10 *
00:00 Clear 65 54 48 SW 6 30.0 10 *
30 July 2014
23:00 Clear 69 48 48 SW 11 30.0 10 *
22:00 Clear 72 38 46 WSW 13 30.0 9 *
21:00 Clear 71 39 45 SSW 11 30.0 10 *
20:00 Mainly Sunny 79 30 45 SW 10 30.0 10 79
19:00 Mainly Sunny 79 37 51 WSW 8 30.0 7 82
18:00 Partly Cloudy 87 29 51 WSW 7 30.0 8 90
17:00 Sunny 89 22 46 WSW 11 30.0 10 90
16:00 Sunny 91   18 43 WSW 9 gust 18 30.0 10 *
15:00 Sunny 89 30 54 S 7 30.0 10 93
14:00 Sunny 87 31 54 S 11 30.0 10 91
13:00 Sunny 85 33 53 S 8 30.1 10 89
12:00 Sunny 84 35 54 S 11 30.1 10 88
11:00 Sunny 80 45 57 S 14 30.1 10 85
10:00 Sunny 77 47 55 S 17 30.1 10 82
9:00 Sunny 73 54 56 S 18 30.1 10 78
8:00 Sunny 68 64 56 S 17 30.1 10 *
7:00 Sunny 62 78 55 S 14 30.1 10 *
N/A
Not available
 ↑ 
Highest temperature
 ↓ 
Lowest temperature
*
Value not significant.

If you require additional historical weather information, please visit Climate Data Online.